Time;durP1;ratioP1;P1;durP2;ratioP2;P2;SDS_P1;SDS_P2;PMS_P1;PMS_P2;Temp;Humidity;BMP_temperature;BMP_pressure;BME280_temperature;BME280_humidity;BME280_pressure;Samples;Min_cycle;Max_cycle;Signal;HPM_P1;HPM_P2
2022/01/03 00:01:56;;;;;;;6.75;6.05;;;;;;;19.11;48.56;101767.59;5017870;28;20050;-84
2022/01/03 00:04:24;;;;;;;7.03;6.32;;;;;;;19.11;48.41;101764.91;5016372;28;20049;-84
2022/01/03 00:06:52;;;;;;;8.75;6.57;;;;;;;19.11;48.36;101767.59;5016927;28;20037;-84
2022/01/03 00:09:20;;;;;;;6.85;6.15;;;;;;;19.11;48.21;101752.34;5016906;28;20402;-84
2022/01/03 00:11:48;;;;;;;6.97;6.18;;;;;;;19.12;48.13;101770.19;5016109;28;20046;-84
2022/01/03 00:14:15;;;;;;;7.75;6.40;;;;;;;19.13;48.20;101750.44;5017031;28;20382;-84
2022/01/03 00:16:42;;;;;;;6.88;6.18;;;;;;;19.13;48.05;101742.38;5017526;28;20061;-84
2022/01/03 00:19:10;;;;;;;7.72;6.28;;;;;;;19.12;47.57;101743.34;5017304;28;20528;-83
2022/01/03 00:21:45;;;;;;;7.38;6.68;;;;;;;19.13;47.42;101747.75;5017142;28;20046;-82
2022/01/03 00:24:14;;;;;;;6.85;6.15;;;;;;;19.13;47.32;101745.06;5016531;28;20060;-82
2022/01/03 00:26:48;;;;;;;9.25;6.35;;;;;;;19.13;47.22;101749.59;5015380;28;20049;-82
2022/01/03 00:29:20;;;;;;;7.60;6.10;;;;;;;19.14;47.20;101744.09;4999065;28;20080;-82
2022/01/03 00:31:48;;;;;;;6.95;6.13;;;;;;;19.14;46.97;101738.72;5014976;28;20401;-82
2022/01/03 00:34:15;;;;;;;6.75;6.15;;;;;;;19.14;46.62;101730.66;5013625;28;20049;-83
2022/01/03 00:36:44;;;;;;;7.25;6.10;;;;;;;19.15;46.80;101715.41;5044260;28;20054;-82
2022/01/03 00:39:13;;;;;;;6.82;6.05;;;;;;;19.15;46.90;101716.28;5015274;28;20038;-82
2022/01/03 00:41:43;;;;;;;7.00;6.30;;;;;;;19.17;46.70;101721.56;5014396;28;20053;-82
2022/01/03 00:44:12;;;;;;;8.00;6.45;;;;;;;19.17;46.81;101714.34;5018575;28;20046;-82
2022/01/03 00:46:39;;;;;;;8.07;6.32;;;;;;;19.16;46.59;101704.59;5023102;28;20429;-82
2022/01/03 00:49:07;;;;;;;6.55;5.93;;;;;;;19.18;46.54;101704.47;4998661;28;20064;-82
2022/01/03 00:51:35;;;;;;;7.13;6.10;;;;;;;19.18;46.52;101718.75;5014899;28;20053;-82
2022/01/03 00:54:03;;;;;;;6.88;6.18;;;;;;;19.19;46.37;101708.88;5015510;28;20050;-83
2022/01/03 00:56:38;;;;;;;7.25;5.85;;;;;;;19.21;46.26;101706.94;5017515;28;20045;-82
2022/01/03 00:59:07;;;;;;;6.45;5.85;;;;;;;19.21;46.41;101715.84;5014654;28;20050;-84
2022/01/03 01:01:43;;;;;;;6.57;5.97;;;;;;;19.22;46.16;101714.03;5013624;28;20520;-84
2022/01/03 01:04:14;;;;;;;7.57;6.15;;;;;;;19.23;46.25;101715.72;5014870;28;20050;-84
2022/01/03 01:06:50;;;;;;;6.82;6.22;;;;;;;19.23;45.97;101715.72;5014895;28;20058;-83
2022/01/03 01:09:19;;;;;;;6.18;5.65;;;;;;;19.25;46.02;101720.03;5014882;28;20050;-83
2022/01/03 01:11:50;;;;;;;5.47;4.97;;;;;;;19.26;45.80;101699.41;5013825;28;20068;-83
2022/01/03 01:14:18;;;;;;;6.53;5.93;;;;;;;19.27;45.82;101704.66;5014400;28;20061;-83
2022/01/03 01:16:46;;;;;;;6.55;5.80;;;;;;;19.28;45.86;101697.47;5014529;28;20076;-82
2022/01/03 01:19:14;;;;;;;6.30;5.70;;;;;;;19.29;45.83;101703.72;5014724;28;20050;-82
2022/01/03 01:21:42;;;;;;;5.57;5.07;;;;;;;19.29;45.49;101699.19;5014401;28;20061;-82
2022/01/03 01:24:10;;;;;;;6.40;5.80;;;;;;;19.30;45.70;101690.16;5013922;28;20110;-82
2022/01/03 01:29:24;;;;;;;5.80;5.18;;;;;;;19.32;45.59;101680.16;5013711;28;20065;-82
2022/01/03 01:31:53;;;;;;;6.28;5.72;;;;;;;19.34;45.42;101698.88;5013472;28;20054;-83
2022/01/03 01:34:28;;;;;;;6.27;5.67;;;;;;;19.34;45.51;101705.09;5014159;28;20053;-83
2022/01/03 01:37:00;;;;;;;7.47;6.50;;;;;;;19.35;45.33;101704.13;5026461;28;20490;-83
2022/01/03 01:39:30;;;;;;;6.97;6.27;;;;;;;19.35;45.49;101709.47;4998257;28;20417;-83
2022/01/03 01:42:03;;;;;;;5.78;5.28;;;;;;;19.36;45.59;101704.97;5014432;28;20367;-83
2022/01/03 01:44:35;;;;;;;5.60;5.10;;;;;;;19.37;45.54;101706.72;5014814;28;20061;-83
2022/01/03 01:47:06;;;;;;;6.90;6.20;;;;;;;19.37;45.54;101715.63;5013861;28;20417;-83
2022/01/03 01:49:56;;;;;;;7.38;5.55;;;;;;;19.36;45.43;101711.19;5014052;28;20520;-83
2022/01/03 01:52:25;;;;;;;6.15;5.47;;;;;;;19.37;45.54;101718.31;5012324;28;20058;-83
2022/01/03 01:55:12;;;;;;;5.78;5.07;;;;;;;19.37;45.55;101722.81;5012378;28;20050;-82
2022/01/03 01:57:57;;;;;;;6.38;5.78;;;;;;;19.37;45.35;101722.81;5013852;28;20497;-83
2022/01/03 02:00:35;;;;;;;5.32;4.82;;;;;;;19.37;45.53;101720.13;5001081;28;20054;-83
2022/01/03 02:03:22;;;;;;;5.63;5.13;;;;;;;19.38;45.40;101733.44;5017386;28;20057;-83
2022/01/03 02:06:01;;;;;;;6.35;5.30;;;;;;;19.38;45.50;101748.69;5014259;28;20049;-83
2022/01/03 02:08:39;;;;;;;5.80;5.20;;;;;;;19.37;45.47;101728.19;5014499;28;20406;-83
2022/01/03 02:11:20;;;;;;;5.68;5.07;;;;;;;19.36;45.36;101718.38;5016260;28;20061;-83
2022/01/03 02:13:51;;;;;;;5.32;4.80;;;;;;;19.35;45.49;101720.22;5013523;28;20061;-83
2022/01/03 02:16:19;;;;;;;6.00;4.50;;;;;;;19.36;45.43;101713.03;5013463;28;20049;-83
2022/01/03 02:18:50;;;;;;;4.82;4.32;;;;;;;19.35;45.49;101706.78;5013111;28;20536;-82
2022/01/03 02:21:19;;;;;;;5.22;4.72;;;;;;;19.36;45.58;101691.53;5012561;28;20414;-82
2022/01/03 02:23:49;;;;;;;5.20;4.70;;;;;;;19.35;45.57;101688.00;5013495;28;20536;-82
2022/01/03 02:26:17;;;;;;;5.32;4.82;;;;;;;19.35;45.48;101669.22;5013187;28;20050;-83
2022/01/03 02:28:45;;;;;;;5.00;4.43;;;;;;;19.35;45.56;101654.94;5013175;28;20053;-83
2022/01/03 02:31:17;;;;;;;5.32;4.82;;;;;;;19.36;45.60;101640.53;5013394;28;20076;-83
2022/01/03 02:33:46;;;;;;;5.28;4.20;;;;;;;19.35;45.48;101647.72;5013330;28;20409;-83
2022/01/03 02:36:15;;;;;;;5.38;4.88;;;;;;;19.35;45.37;101652.25;5017863;28;20048;-83
2022/01/03 02:38:44;;;;;;;4.88;4.47;;;;;;;19.36;45.47;101664.69;5034500;28;20045;-82
2022/01/03 02:41:12;;;;;;;5.45;4.85;;;;;;;19.36;45.56;101684.34;5032693;28;20064;-83
2022/01/03 02:43:40;;;;;;;5.03;4.53;;;;;;;19.36;45.50;101675.44;5032913;28;20077;-83
2022/01/03 02:46:09;;;;;;;4.35;3.95;;;;;;;19.36;45.55;101668.22;5031892;28;20050;-83
2022/01/03 02:48:37;;;;;;;4.97;4.28;;;;;;;19.37;45.43;101669.13;5032655;28;20401;-82
2022/01/03 02:51:05;;;;;;;4.50;4.10;;;;;;;19.37;45.44;101674.47;5032210;28;20053;-82
2022/01/03 02:53:33;;;;;;;4.28;3.88;;;;;;;19.37;45.11;101687.91;5032946;28;20069;-82
2022/01/03 02:56:01;;;;;;;4.30;3.90;;;;;;;19.35;45.50;101671.03;5032431;28;20049;-82
2022/01/03 02:58:29;;;;;;;4.85;4.35;;;;;;;19.35;45.34;101666.53;5016291;28;20045;-82
2022/01/03 03:00:57;;;;;;;4.30;3.90;;;;;;;19.36;45.20;101691.53;5031791;28;20408;-82
2022/01/03 03:03:30;;;;;;;4.25;3.85;;;;;;;19.35;45.21;101701.44;5032597;28;20042;-82
2022/01/03 03:05:59;;;;;;;4.63;3.97;;;;;;;19.35;45.26;101697.88;5032320;28;20493;-82
2022/01/03 03:08:28;;;;;;;5.15;3.97;;;;;;;19.36;45.12;101680.81;5031627;28;20058;-82
2022/01/03 03:10:56;;;;;;;4.28;3.88;;;;;;;19.37;45.18;101663.75;5030907;28;20053;-82
2022/01/03 03:13:23;;;;;;;4.47;4.03;;;;;;;19.36;44.99;101680.81;5012393;28;20049;-83
2022/01/03 03:15:51;;;;;;;4.47;3.78;;;;;;;19.36;45.00;101678.13;5012926;28;20504;-83
2022/01/03 03:18:19;;;;;;;4.47;4.07;;;;;;;19.37;45.10;101674.47;5014272;28;20366;-82
2022/01/03 03:20:47;;;;;;;3.95;3.55;;;;;;;19.36;45.12;101662.00;5012283;28;20049;-83
2022/01/03 03:23:14;;;;;;;5.15;3.70;;;;;;;19.38;45.20;101652.88;5012311;28;20414;-82
2022/01/03 03:25:42;;;;;;;4.18;3.60;;;;;;;19.37;45.04;101635.06;5012672;28;20061;-82
2022/01/03 03:28:14;;;;;;;4.43;4.03;;;;;;;19.39;44.86;101634.94;5011983;28;20077;-82
2022/01/03 03:30:45;;;;;;;3.80;3.50;;;;;;;19.38;44.94;101652.88;5011841;28;20482;-82
2022/01/03 03:33:22;;;;;;;4.97;3.55;;;;;;;19.39;45.18;101664.47;5011257;28;20532;-82
2022/01/03 03:35:57;;;;;;;3.95;3.55;;;;;;;19.37;45.21;101659.22;5011741;28;20405;-83
2022/01/03 03:38:27;;;;;;;3.30;2.95;;;;;;;19.37;45.12;101653.00;5022312;28;20374;-82
2022/01/03 03:40:58;;;;;;;3.65;3.35;;;;;;;19.37;45.03;101653.00;5030867;28;20497;-82
2022/01/03 03:43:30;;;;;;;4.10;3.70;;;;;;;19.37;45.03;101628.84;5031275;28;20045;-81
2022/01/03 03:46:00;;;;;;;4.07;3.67;;;;;;;19.38;44.91;101619.81;5031164;28;20053;-81
2022/01/03 03:48:28;;;;;;;4.65;3.88;;;;;;;19.38;44.83;101617.97;5031947;28;20061;-81
2022/01/03 03:50:55;;;;;;;3.67;3.38;;;;;;;19.37;44.90;101616.28;5031871;28;20053;-82
2022/01/03 03:53:26;;;;;;;3.80;3.40;;;;;;;19.37;44.91;101623.47;5032459;28;20052;-82
2022/01/03 03:55:54;;;;;;;4.40;3.60;;;;;;;19.36;45.29;101619.91;5023737;28;20053;-82
2022/01/03 03:58:23;;;;;;;4.25;3.85;;;;;;;19.36;44.75;101608.31;5012619;28;20054;-82
2022/01/03 04:00:51;;;;;;;3.58;3.28;;;;;;;19.36;45.07;101600.25;5015402;28;20079;-82
2022/01/03 04:03:37;;;;;;;3.90;3.50;;;;;;;19.35;44.97;101625.41;5015339;28;20409;-82
2022/01/03 04:06:06;;;;;;;3.53;3.22;;;;;;;19.35;45.06;101662.97;5015344;28;20054;-82
2022/01/03 04:08:33;;;;;;;3.25;2.95;;;;;;;19.34;45.10;101669.31;5014745;28;20058;-82
2022/01/03 04:11:01;;;;;;;3.75;3.45;;;;;;;19.33;45.03;101638.94;5015597;28;20054;-82
2022/01/03 04:13:30;;;;;;;3.88;3.40;;;;;;;19.34;45.03;101629.06;4998187;28;20057;-81
2022/01/03 04:15:58;;;;;;;3.45;3.15;;;;;;;19.33;45.00;101614.78;5016120;28;20406;-81
2022/01/03 04:18:26;;;;;;;4.55;3.60;;;;;;;19.32;44.93;101601.44;5015767;28;20058;-82
2022/01/03 04:20:53;;;;;;;3.13;2.83;;;;;;;19.33;44.96;101604.03;5016576;28;20045;-82
2022/01/03 04:23:21;;;;;;;3.45;3.15;;;;;;;19.33;44.92;101589.75;5015610;28;20054;-81
2022/01/03 04:25:48;;;;;;;3.40;3.10;;;;;;;19.33;44.86;101576.34;5017488;28;20057;-83
2022/01/03 04:28:16;;;;;;;3.30;3.00;;;;;;;19.32;44.89;101580.81;5015752;28;20049;-83
2022/01/03 04:30:43;;;;;;;3.58;3.25;;;;;;;19.34;45.02;101592.31;5016002;28;20054;-83
2022/01/03 04:33:11;;;;;;;3.92;3.20;;;;;;;19.34;44.81;101583.41;5016433;28;20062;-83
2022/01/03 04:35:39;;;;;;;3.35;3.05;;;;;;;19.34;44.94;101564.63;5016614;28;20390;-83
2022/01/03 04:38:06;;;;;;;3.53;3.05;;;;;;;19.33;44.91;101561.09;5019077;28;20515;-84
2022/01/03 04:40:34;;;;;;;3.08;2.78;;;;;;;19.35;44.91;101571.69;5031133;28;20041;-84
2022/01/03 04:43:01;;;;;;;3.58;3.28;;;;;;;19.36;44.69;101578.78;5034953;28;20411;-84
2022/01/03 04:45:29;;;;;;;3.17;2.80;;;;;;;19.34;44.83;101578.91;5036310;28;20485;-84
2022/01/03 04:47:57;;;;;;;4.53;3.20;;;;;;;19.35;44.69;101567.19;5034861;28;20461;-85
2022/01/03 04:50:25;;;;;;;3.72;2.88;;;;;;;19.36;44.59;101571.56;5034549;28;20057;-84
2022/01/03 04:52:53;;;;;;;4.55;3.15;;;;;;;19.37;44.63;101576.00;5035244;28;20056;-84
2022/01/03 04:55:20;;;;;;;4.25;3.10;;;;;;;19.36;44.70;101554.59;5034716;28;20054;-81
2022/01/03 04:57:50;;;;;;;3.55;2.95;;;;;;;19.36;44.54;101551.94;5034398;28;20525;-81
2022/01/03 05:00:18;;;;;;;3.28;2.97;;;;;;;19.36;44.88;101535.81;5034517;28;20053;-80
2022/01/03 05:02:46;;;;;;;3.22;2.75;;;;;;;19.37;45.04;101553.66;5034324;28;20054;-83
2022/01/03 05:05:14;;;;;;;3.53;3.17;;;;;;;19.35;44.67;101547.53;5035079;28;20493;-83
2022/01/03 05:07:42;;;;;;;3.33;3.03;;;;;;;19.36;44.60;101546.56;5034528;28;20049;-83
2022/01/03 05:10:12;;;;;;;3.55;2.95;;;;;;;19.35;44.86;101542.16;5033188;28;20054;-83
2022/01/03 05:12:40;;;;;;;3.42;3.13;;;;;;;19.34;44.70;101551.19;5034422;28;20060;-83
2022/01/03 05:15:07;;;;;;;3.47;2.53;;;;;;;19.33;44.52;101550.34;5034232;28;20060;-83
2022/01/03 05:17:35;;;;;;;3.45;2.95;;;;;;;19.33;44.78;101557.53;5034407;28;20061;-82
2022/01/03 05:20:04;;;;;;;3.08;2.78;;;;;;;19.34;44.81;101578.03;5034473;28;20058;-82
2022/01/03 05:22:32;;;;;;;3.90;2.80;;;;;;;19.32;44.97;101579.97;5034700;28;20481;-82
2022/01/03 05:25:01;;;;;;;4.30;2.72;;;;;;;19.32;45.05;101582.66;5033170;28;20054;-82
2022/01/03 05:27:29;;;;;;;2.85;2.55;;;;;;;19.30;44.87;101573.88;5034330;28;20405;-83
2022/01/03 05:29:57;;;;;;;3.00;2.70;;;;;;;19.29;44.98;101564.13;5034242;28;20045;-83
2022/01/03 05:32:26;;;;;;;3.15;2.85;;;;;;;19.30;44.94;101560.44;5034379;28;20049;-84
2022/01/03 05:34:53;;;;;;;3.00;2.65;;;;;;;19.32;44.67;101558.50;5034021;28;20520;-84
2022/01/03 05:37:21;;;;;;;2.88;2.58;;;;;;;19.34;44.51;101580.72;5033740;28;20054;-83
2022/01/03 05:39:49;;;;;;;2.88;2.58;;;;;;;19.34;44.72;101605.75;5028487;28;20054;-82
2022/01/03 05:42:16;;;;;;;3.38;2.75;;;;;;;19.34;44.52;101612.94;5013501;28;20058;-82
2022/01/03 05:44:44;;;;;;;3.40;2.53;;;;;;;19.35;44.65;101617.34;5013188;28;20045;-83
2022/01/03 05:47:12;;;;;;;2.80;2.50;;;;;;;19.35;44.81;101615.50;5012984;28;20064;-83
2022/01/03 05:49:39;;;;;;;3.03;2.50;;;;;;;19.36;44.62;101619.03;4997929;28;20054;-83
2022/01/03 05:52:07;;;;;;;3.72;3.00;;;;;;;19.35;44.62;101618.19;5013608;28;20060;-84
2022/01/03 05:54:35;;;;;;;3.00;2.70;;;;;;;19.35;44.63;101609.28;5014023;28;20053;-83
2022/01/03 05:57:02;;;;;;;3.15;2.85;;;;;;;19.36;44.50;101595.72;5013340;28;20510;-82
2022/01/03 05:59:31;;;;;;;3.05;2.75;;;;;;;19.35;44.62;101593.19;5013595;28;20417;-82
2022/01/03 06:01:58;;;;;;;3.10;2.80;;;;;;;19.37;44.51;101591.25;5012942;28;20061;-82
2022/01/03 06:04:40;;;;;;;3.00;2.70;;;;;;;19.35;44.84;101591.34;5013806;28;20052;-83
2022/01/03 06:07:09;;;;;;;3.20;2.80;;;;;;;19.34;45.37;101578.03;4997653;28;20050;-81
2022/01/03 06:09:44;;;;;;;4.82;2.90;;;;;;;19.31;45.80;101563.00;5012344;28;20489;-81
2022/01/03 06:12:13;;;;;;;3.33;3.00;;;;;;;19.29;45.73;101585.59;5012503;28;20072;-82
2022/01/03 06:14:46;;;;;;;3.20;2.88;;;;;;;19.27;45.75;101586.53;5014949;28;20058;-83
2022/01/03 06:17:16;;;;;;;2.70;2.38;;;;;;;19.26;45.89;101586.66;5012810;28;20061;-84
2022/01/03 06:19:47;;;;;;;2.90;2.60;;;;;;;19.25;45.88;101583.13;5012360;28;20054;-84
2022/01/03 06:22:14;;;;;;;2.60;2.38;;;;;;;19.24;45.91;101575.16;5013272;28;20049;-84
2022/01/03 06:24:47;;;;;;;3.28;2.78;;;;;;;19.23;45.85;101573.47;5013197;28;20056;-83
2022/01/03 06:27:17;;;;;;;3.10;2.80;;;;;;;19.23;45.81;101581.50;5013781;28;20061;-83
2022/01/03 06:29:44;;;;;;;3.15;2.78;;;;;;;19.22;45.84;101594.09;5013421;28;20056;-83
2022/01/03 06:32:12;;;;;;;3.05;2.75;;;;;;;19.21;46.08;101583.47;5013957;28;20061;-84
2022/01/03 06:34:39;;;;;;;3.70;2.90;;;;;;;19.21;45.99;101576.25;5014286;28;20493;-83
2022/01/03 06:37:07;;;;;;;3.30;2.67;;;;;;;19.20;46.17;101571.00;5013795;28;20049;-83
2022/01/03 06:39:46;;;;;;;2.90;2.60;;;;;;;19.20;46.18;101579.03;5000430;28;20554;-83
2022/01/03 06:42:14;;;;;;;3.50;2.72;;;;;;;19.20;46.06;101576.34;5018436;28;20046;-84
2022/01/03 06:44:43;;;;;;;2.90;2.60;;;;;;;19.19;45.93;101574.66;5015000;28;20049;-84
2022/01/03 06:47:11;;;;;;;3.08;2.60;;;;;;;19.20;46.03;101577.25;5014565;28;20049;-84
2022/01/03 06:49:38;;;;;;;2.65;2.40;;;;;;;19.18;45.76;101568.44;5013326;28;20057;-84
2022/01/03 06:52:06;;;;;;;3.28;2.72;;;;;;;19.19;45.92;101570.13;5012227;28;20501;-84
2022/01/03 06:54:34;;;;;;;3.30;2.97;;;;;;;19.19;45.76;101566.59;5012828;28;20050;-85
2022/01/03 06:57:04;;;;;;;3.15;2.85;;;;;;;19.18;45.93;101568.44;5014118;28;20050;-84
2022/01/03 06:59:34;;;;;;;2.90;2.58;;;;;;;19.19;45.74;101563.91;5013742;28;20053;-84
2022/01/03 07:02:04;;;;;;;3.10;2.47;;;;;;;19.18;45.82;101563.06;5013223;28;20050;-83
2022/01/03 07:04:32;;;;;;;3.55;2.97;;;;;;;19.18;45.69;101563.06;5013115;28;20054;-83
2022/01/03 07:07:04;;;;;;;3.30;2.80;;;;;;;19.19;45.56;101554.03;5012528;28;20052;-82
2022/01/03 07:09:32;;;;;;;2.85;2.55;;;;;;;19.20;45.67;101545.03;5014559;28;20056;-83
2022/01/03 07:11:59;;;;;;;3.80;3.00;;;;;;;19.19;45.46;101548.66;5013354;28;20050;-83
2022/01/03 07:19:52;;;;;;;3.20;2.83;;;;;;;19.19;45.28;101543.28;5013782;28;20045;-83
2022/01/03 07:22:20;;;;;;;4.00;2.55;;;;;;;19.19;45.31;101543.28;5014710;28;20050;-83
2022/01/03 07:24:47;;;;;;;3.30;3.00;;;;;;;19.18;45.39;101551.47;5014047;28;20053;-83
2022/01/03 07:27:15;;;;;;;2.95;2.60;;;;;;;19.18;45.39;101560.38;5013788;28;20397;-83
2022/01/03 07:29:43;;;;;;;2.90;2.50;;;;;;;19.18;45.21;101560.38;5013847;28;20061;-83
2022/01/03 07:32:11;;;;;;;3.95;3.35;;;;;;;19.16;45.13;101548.91;5012559;28;20053;-83
2022/01/03 07:34:38;;;;;;;3.38;3.08;;;;;;;19.17;45.19;101536.34;5015457;28;20517;-83
2022/01/03 07:37:06;;;;;;;3.50;2.97;;;;;;;19.16;45.27;101529.25;5018821;28;20046;-83
2022/01/03 07:39:34;;;;;;;3.10;2.80;;;;;;;19.16;45.05;101527.44;5016869;28;20050;-83
2022/01/03 07:42:03;;;;;;;2.97;2.50;;;;;;;19.17;44.86;101534.50;5016157;28;20050;-83
2022/01/03 07:44:36;;;;;;;2.72;2.50;;;;;;;19.17;45.08;101539.03;5035842;28;20053;-84
2022/01/03 07:47:05;;;;;;;2.70;2.40;;;;;;;19.17;45.00;101541.72;5037807;28;20041;-84
2022/01/03 07:49:33;;;;;;;3.03;2.70;;;;;;;19.18;45.04;101540.75;5037793;28;20054;-84
2022/01/03 07:52:00;;;;;;;3.17;2.60;;;;;;;19.18;44.89;101555.00;5036101;28;20045;-84
2022/01/03 07:54:27;;;;;;;2.90;2.47;;;;;;;19.18;44.91;101563.06;5036065;28;20045;-85
2022/01/03 07:56:55;;;;;;;2.90;2.60;;;;;;;19.18;45.11;101564.91;5028729;28;20042;-85
2022/01/03 07:59:23;;;;;;;2.72;2.50;;;;;;;19.18;44.99;101562.22;5016545;28;20056;-85
2022/01/03 08:01:50;;;;;;;2.88;2.25;;;;;;;19.18;45.13;101564.91;5016436;28;20053;-84
2022/01/03 08:04:18;;;;;;;3.05;2.70;;;;;;;19.18;45.06;101551.47;5016226;28;20046;-84
2022/01/03 08:06:46;;;;;;;3.30;2.78;;;;;;;19.18;45.25;101554.16;5015990;28;20045;-82
2022/01/03 08:09:13;;;;;;;3.70;3.20;;;;;;;19.16;45.25;101551.59;5015225;28;20053;-82
2022/01/03 08:11:40;;;;;;;4.47;2.80;;;;;;;19.16;45.20;101554.28;5016061;28;20046;-82
2022/01/03 08:14:08;;;;;;;3.15;2.70;;;;;;;19.15;45.17;101557.91;5014892;28;20413;-84
2022/01/03 08:16:35;;;;;;;2.92;2.63;;;;;;;19.15;45.22;101557.91;5015229;28;20042;-82
2022/01/03 08:19:03;;;;;;;3.30;2.90;;;;;;;19.15;45.14;101560.59;5016382;28;20053;-83
2022/01/03 08:21:30;;;;;;;3.10;2.80;;;;;;;19.15;45.46;101557.91;5016779;28;20050;-83
2022/01/03 08:23:57;;;;;;;3.50;2.97;;;;;;;19.15;45.32;101557.06;5016661;28;20042;-83
2022/01/03 08:26:25;;;;;;;3.28;2.90;;;;;;;19.14;45.18;101556.22;5014906;28;20053;-83
2022/01/03 08:28:53;;;;;;;4.13;2.40;;;;;;;19.14;45.34;101539.25;5015885;28;20057;-82
2022/01/03 08:31:22;;;;;;;3.30;3.00;;;;;;;19.15;45.16;101530.22;5015931;28;20069;-83
2022/01/03 08:33:50;;;;;;;3.10;2.80;;;;;;;19.13;45.36;101522.28;5015765;28;20057;-82
2022/01/03 08:36:17;;;;;;;3.50;2.63;;;;;;;19.13;45.43;101561.69;5015595;28;20041;-82
2022/01/03 08:38:45;;;;;;;2.80;2.50;;;;;;;19.12;45.34;101574.25;5015727;28;20046;-82
2022/01/03 08:41:13;;;;;;;3.42;2.95;;;;;;;19.12;45.31;101566.22;5015498;28;20049;-82
2022/01/03 08:43:40;;;;;;;2.83;2.30;;;;;;;19.12;45.31;101565.34;5022762;28;20071;-81
2022/01/03 08:46:08;;;;;;;4.22;2.92;;;;;;;19.10;45.65;101597.66;5015617;28;20406;-81
2022/01/03 08:48:36;;;;;;;4.68;2.95;;;;;;;19.10;45.95;101607.53;5015565;28;20113;-82
2022/01/03 08:51:03;;;;;;;3.15;2.55;;;;;;;19.08;46.70;101596.03;5015679;28;20053;-83
2022/01/03 08:53:33;;;;;;;5.88;5.25;;;;;;;19.05;42.51;101598.97;5000335;28;20058;-80
2022/01/03 08:56:01;;;;;;;4.07;3.60;;;;;;;18.96;44.90;101600.50;5017330;28;20461;-82
2022/01/03 08:58:28;;;;;;;3.60;2.75;;;;;;;18.94;46.32;101605.97;5015833;28;20061;-83
2022/01/03 09:00:56;;;;;;;5.28;2.55;;;;;;;18.94;46.50;101619.38;5015952;28;20049;-82
2022/01/03 09:03:24;;;;;;;5.72;3.30;;;;;;;18.95;46.38;101621.09;5015908;28;20402;-82
2022/01/03 09:05:54;;;;;;;3.35;3.05;;;;;;;18.96;46.43;101619.28;5016336;28;20046;-83
2022/01/03 09:08:22;;;;;;;2.90;2.60;;;;;;;18.96;46.26;101617.47;5016234;28;20060;-84
2022/01/03 09:10:51;;;;;;;3.47;2.90;;;;;;;18.98;46.22;101614.66;5015858;28;20037;-85
2022/01/03 09:13:20;;;;;;;4.47;3.28;;;;;;;18.99;46.25;101621.72;5014046;28;20060;-84
2022/01/03 09:15:48;;;;;;;3.55;2.80;;;;;;;18.99;46.45;101609.16;5013227;28;20050;-84
2022/01/03 09:18:18;;;;;;;3.67;2.65;;;;;;;19.00;46.54;101612.72;5015305;28;20049;-84
2022/01/03 09:20:46;;;;;;;2.95;2.60;;;;;;;19.01;46.26;101617.97;5013880;28;20402;-83
2022/01/03 09:23:23;;;;;;;3.42;2.40;;;;;;;19.02;46.24;101624.19;5014996;28;20046;-85
2022/01/03 09:28:49;;;;;;;5.70;4.60;;;;;;;18.96;42.92;101600.50;5015057;28;20466;-85
2022/01/03 09:31:19;;;;;;;6.28;5.68;;;;;;;18.91;41.57;101621.41;5014783;28;20049;-85
2022/01/03 09:33:46;;;;;;;8.73;4.97;;;;;;;18.85;42.00;101632.59;5014491;28;20042;-85
2022/01/03 09:36:14;;;;;;;5.18;4.68;;;;;;;18.81;41.78;101631.09;5013348;28;20406;-83
2022/01/03 09:38:41;;;;;;;4.80;4.40;;;;;;;18.79;43.07;101631.19;5013668;28;20061;-83
2022/01/03 09:41:11;;;;;;;4.88;4.38;;;;;;;18.79;43.89;101631.19;5013780;28;20057;-83
2022/01/03 09:43:59;;;;;;;4.95;4.38;;;;;;;18.80;43.97;101642.78;5018268;28;20065;-84
2022/01/03 09:46:32;;;;;;;5.57;3.38;;;;;;;18.80;43.85;101650.81;5019039;28;20054;-83
2022/01/03 09:48:59;;;;;;;4.78;3.45;;;;;;;18.78;44.04;101678.63;5014594;28;20058;-84
2022/01/03 09:51:29;;;;;;;5.13;3.88;;;;;;;18.79;43.99;101679.47;5014859;28;20049;-83
2022/01/03 09:54:01;;;;;;;5.07;4.43;;;;;;;18.79;43.17;101663.38;5015034;28;20059;-85
2022/01/03 09:56:32;;;;;;;7.68;6.47;;;;;;;18.78;41.95;101642.91;5015320;28;20061;-84
2022/01/03 09:59:00;;;;;;;8.98;6.25;;;;;;;18.75;41.69;101632.38;5003252;28;20057;-83
2022/01/03 10:01:30;;;;;;;6.75;5.78;;;;;;;18.75;42.84;101632.38;5003499;28;20053;-83
2022/01/03 10:03:59;;;;;;;7.05;5.40;;;;;;;18.75;43.71;101627.88;5015645;28;20049;-85
2022/01/03 10:06:27;;;;;;;6.10;5.50;;;;;;;18.79;43.54;101647.28;5022546;28;20045;-83
2022/01/03 10:08:55;;;;;;;5.63;5.03;;;;;;;18.80;43.58;101654.41;5014761;28;20056;-83
2022/01/03 10:11:25;;;;;;;5.30;4.80;;;;;;;18.82;43.72;101640.88;5012742;28;20042;-82
2022/01/03 10:13:52;;;;;;;5.93;4.65;;;;;;;18.83;43.88;101638.06;5014001;28;20068;-82
2022/01/03 10:16:20;;;;;;;6.68;4.47;;;;;;;18.83;43.85;101635.38;5014267;28;20049;-82
2022/01/03 10:19:07;;;;;;;6.22;4.30;;;;;;;18.85;44.25;101632.59;5014241;28;20045;-82
2022/01/03 10:21:45;;;;;;;4.90;4.40;;;;;;;18.85;44.24;101637.97;5012799;28;20049;-81
2022/01/03 10:24:15;;;;;;;8.05;5.15;;;;;;;18.85;44.22;101641.50;5014000;28;20486;-82
2022/01/03 10:26:51;;;;;;;6.40;4.47;;;;;;;18.86;43.78;101650.41;5013640;28;20038;-82
2022/01/03 10:29:22;;;;;;;5.47;4.40;;;;;;;18.86;43.81;101647.72;5012747;28;20057;-83
2022/01/03 10:31:52;;;;;;;6.72;4.50;;;;;;;18.86;43.93;101661.13;5008761;28;20058;-82
2022/01/03 10:34:23;;;;;;;5.28;4.72;;;;;;;18.85;44.04;101667.47;5013756;28;20064;-82
2022/01/03 10:36:56;;;;;;;4.88;4.35;;;;;;;18.87;44.03;101652.13;5013662;28;20073;-83
2022/01/03 10:39:26;;;;;;;7.05;4.28;;;;;;;18.87;44.33;101644.06;5011817;28;20125;-84
2022/01/03 10:42:21;;;;;;;4.93;4.32;;;;;;;18.88;45.16;101629.69;5013701;28;20045;-84
2022/01/03 10:44:49;;;;;;;4.00;3.60;;;;;;;18.87;44.73;101631.50;5018819;28;20053;-84
2022/01/03 10:47:31;;;;;;;4.47;4.05;;;;;;;18.88;44.64;101635.03;5017149;28;20041;-84
2022/01/03 10:49:59;;;;;;;5.63;4.35;;;;;;;18.88;44.80;101613.59;5013675;28;20671;-83
2022/01/03 10:52:30;;;;;;;4.93;3.78;;;;;;;18.89;44.52;101607.28;5013478;28;20054;-82
2022/01/03 10:55:11;;;;;;;5.00;3.85;;;;;;;18.89;44.35;101608.13;5013515;28;20049;-83
2022/01/03 10:57:59;;;;;;;5.15;4.35;;;;;;;18.89;44.56;101612.63;5011716;28;20120;-84
2022/01/03 11:00:34;;;;;;;4.00;3.45;;;;;;;18.89;44.49;101620.69;5013526;28;20057;-84
2022/01/03 11:05:58;;;;;;;4.97;3.97;;;;;;;18.89;44.46;101623.38;5014244;28;20049;-85
2022/01/03 11:11:15;;;;;;;4.50;3.80;;;;;;;18.91;44.53;101597.28;5021038;28;20049;-83
2022/01/03 11:13:47;;;;;;;4.75;4.15;;;;;;;18.91;44.48;101589.22;5019958;28;20053;-82
2022/01/03 11:16:14;;;;;;;5.15;4.20;;;;;;;18.91;44.41;101595.44;5018577;28;20509;-81
2022/01/03 11:18:47;;;;;;;4.25;3.53;;;;;;;18.91;44.39;101581.16;5018154;28;20042;-82
2022/01/03 11:21:17;;;;;;;5.70;4.05;;;;;;;18.92;44.30;101566.78;5016413;28;20058;-83
2022/01/03 11:24:05;;;;;;;5.63;4.38;;;;;;;18.91;44.26;101544.47;5017162;28;20046;-83
2022/01/03 11:26:36;;;;;;;4.65;3.55;;;;;;;18.92;45.11;101529.22;5015990;28;20050;-83
2022/01/03 11:29:04;;;;;;;4.00;3.60;;;;;;;18.90;45.01;101545.44;5015497;28;20493;-83
2022/01/03 11:31:33;;;;;;;4.18;3.78;;;;;;;18.89;45.17;101545.56;5016997;28;20053;-84
2022/01/03 11:34:01;;;;;;;4.22;3.60;;;;;;;18.88;45.76;101539.34;5017304;28;20053;-82
2022/01/03 11:36:49;;;;;;;4.57;3.65;;;;;;;18.88;46.13;101538.47;5017277;28;20397;-83
2022/01/03 11:39:21;;;;;;;4.85;3.97;;;;;;;18.87;46.73;101556.38;5016813;28;20049;-84
2022/01/03 11:41:50;;;;;;;4.38;3.60;;;;;;;18.87;47.31;101548.34;5015921;28;20053;-82
2022/01/03 11:44:18;;;;;;;5.30;3.85;;;;;;;18.86;47.71;101541.28;5015641;28;20050;-83
2022/01/03 11:46:46;;;;;;;5.13;4.20;;;;;;;18.87;48.12;101542.13;5019925;28;20041;-87
2022/01/03 11:49:16;;;;;;;5.22;4.03;;;;;;;18.87;48.23;101534.06;5035342;28;20053;-83
2022/01/03 11:51:45;;;;;;;5.18;3.80;;;;;;;18.87;48.63;101526.88;5036783;28;20056;-83
2022/01/03 11:54:14;;;;;;;5.43;4.10;;;;;;;18.86;48.59;101521.63;5034938;28;20481;-83